CDT,Max TemperatureF,Mean TemperatureF,Min TemperatureF,Max Dew PointF,MeanDew PointF,Min DewpointF,Max Humidity, Mean Humidity, Min Humidity, Max Sea Level PressureIn, Mean Sea Level PressureIn, Min Sea Level PressureIn, Max VisibilityMiles, Mean VisibilityMiles, Min VisibilityMiles, Max Wind SpeedMPH, Mean Wind SpeedMPH, Max Gust SpeedMPH,PrecipitationIn, CloudCover, Events, WindDirDegrees
2012-10-1,64,58,53,59,55,54,100,93,72,29.84,29.78,29.73,10,10,10,13,5,17,0.07,2,Rain,14
2012-10-2,64,57,50,59,54,48,100,90,59,29.91,29.83,29.75,10,10,10,10,5,,0.00,5,Rain,313
2012-10-3,75,66,57,64,57,45,100,85,34,30.10,30.00,29.91,10,10,4,10,3,,0.22,4,Rain-Thunderstorm,180
2012-10-4,80,68,55,64,58,50,100,75,36,30.19,30.14,30.10,10,10,10,13,6,18,0.00,1,,187
2012-10-5,55,48,42,54,48,43,100,99,88,30.21,30.18,30.13,10,10,2,15,6,22,0.70,5,Rain-Thunderstorm,346
2012-10-6,51,44,37,45,38,30,100,86,44,30.27,30.23,30.19,10,10,10,8,3,,0.05,1,Rain,311
2012-10-7,53,45,37,43,36,25,100,78,33,30.28,30.24,30.19,10,10,7,12,5,16,0.00,3,,313
2012-10-8,60,46,33,41,34,19,100,65,20,30.24,30.17,30.09,10,10,2,12,3,16,0.00,0,,187
2012-10-9,64,53,42,48,43,36,100,70,34,30.11,30.04,29.94,10,10,10,14,7,22,0.00,1,,182
2012-10-10,57,48,39,52,31,1,100,63,11,30.29,30.20,29.99,10,10,7,15,7,28,0.00,2,,312
2012-10-11,62,48,35,52,36,21,100,64,22,30.27,30.22,30.16,10,10,7,14,5,18,0.03,4,Rain-Thunderstorm,174
2012-10-12,64,58,51,55,52,50,100,90,59,30.36,30.27,30.21,10,9,3,13,2,17,0.01,4,Rain-Thunderstorm,71
2012-10-13,75,63,51,70,62,52,100,94,73,30.24,30.05,29.82,10,7,0,21,7,30,0.00,3,Fog,167
2012-10-14,73,65,57,68,62,54,100,88,53,29.96,29.81,29.69,10,10,5,26,15,37,0.65,4,Rain,224
2012-10-15,69,58,48,54,47,28,100,75,21,30.03,29.98,29.95,10,10,10,7,3,,0.00,0,,279
2012-10-16,78,64,50,57,50,36,100,67,21,29.97,29.81,29.69,10,10,10,16,7,24,0.00,0,,161
2012-10-17,71,63,53,66,59,54,100,89,69,29.70,29.58,29.40,10,10,7,21,11,30,0.29,4,Rain-Thunderstorm,205
2012-10-18,62,55,48,54,28,-18,100,51,4,29.68,29.63,29.60,10,10,10,21,9,30,0.00,2,,231
2012-10-19,55,52,48,48,44,34,100,75,44,29.81,29.68,29.58,10,10,10,22,11,30,0.00,8,Rain,261
2012-10-20,62,55,48,52,49,45,100,87,52,29.94,29.88,29.81,10,10,10,8,4,,0.00,4,,218
2012-10-21,75,62,48,66,56,48,100,79,47,29.98,29.95,29.92,10,10,10,16,7,22,0.00,2,,151
2012-10-22,78,71,64,63,56,46,78,60,38,30.00,29.97,29.91,10,10,10,24,12,31,0.00,1,Thunderstorm,177
2012-10-23,78,69,60,68,58,52,100,70,56,30.02,29.96,29.91,10,10,4,17,10,26,0.35,2,Rain-Thunderstorm,175
2012-10-24,80,71,62,66,64,55,100,79,58,30.03,29.97,29.92,10,10,10,16,8,21,0.00,1,,175
2012-10-25,80,62,44,66,61,45,100,84,54,30.15,29.92,29.83,10,10,7,21,12,32,0.75,3,Rain-Thunderstorm,194
2012-10-26,48,44,39,45,38,34,100,81,58,30.32,30.26,30.13,10,10,10,18,11,28,0.04,4,Rain,344
2012-10-27,51,43,35,37,35,34,100,78,50,30.30,30.24,30.20,10,10,10,15,8,21,0.00,1,,345
2012-10-28,51,43,35,39,36,32,100,79,50,30.25,30.22,30.20,10,10,10,13,7,17,0.00,1,,343
2012-10-29,53,44,35,39,28,1,100,64,12,30.30,30.23,30.10,10,10,10,14,6,22,0.00,0,,339
2012-10-30,57,47,37,34,22,-9,87,49,6,30.09,29.96,29.87,10,10,10,18,8,29,0.00,0,,298
2012-10-31,55,45,35,36,11,-54,93,47,4,29.99,29.95,29.91,10,10,10,14,5,20,0.00,0,,294